Time;durP1;ratioP1;P1;durP2;ratioP2;P2;SDS_P1;SDS_P2;PMS_P1;PMS_P2;Temp;Humidity;BMP_temperature;BMP_pressure;BME280_temperature;BME280_humidity;BME280_pressure;Samples;Min_cycle;Max_cycle;Signal;HPM_P1;HPM_P2
2023/06/20 00:02:25;;;;;;;4.80;4.32;;;;;;;;;;4987961;28;20199;-27
2023/06/20 00:04:52;;;;;;;4.55;3.92;;;;;;;;;;4984641;28;20296;-29
2023/06/20 00:07:20;;;;;;;4.57;4.18;;;;;;;;;;4991906;28;20207;-26
2023/06/20 00:09:48;;;;;;;6.68;4.30;;;;;;;;;;4983524;28;20707;-27
2023/06/20 00:12:15;;;;;;;5.93;4.68;;;;;;;;;;4987602;28;20204;-26
2023/06/20 00:14:42;;;;;;;8.57;5.32;;;;;;;;;;4974390;28;20693;-24
2023/06/20 00:17:09;;;;;;;4.95;4.50;;;;;;;;;;4971379;28;20203;-26
2023/06/20 00:19:36;;;;;;;5.32;4.00;;;;;;;;;;4976767;28;20230;-27
2023/06/20 00:22:04;;;;;;;4.72;4.22;;;;;;;;;;4974202;28;20546;-24
2023/06/20 00:24:32;;;;;;;7.07;3.90;;;;;;;;;;4984281;28;20288;-25
2023/06/20 00:27:01;;;;;;;7.38;4.38;;;;;;;;;;4984260;28;20650;-28
2023/06/20 00:29:28;;;;;;;5.30;4.28;;;;;;;;;;4991385;28;20577;-24
2023/06/20 00:31:55;;;;;;;4.50;4.10;;;;;;;;;;4995044;28;20217;-25
2023/06/20 00:34:22;;;;;;;6.57;4.63;;;;;;;;;;4980672;28;20220;-25
2023/06/20 00:36:50;;;;;;;6.03;4.00;;;;;;;;;;4989431;28;20202;-25
2023/06/20 00:39:17;;;;;;;4.10;3.80;;;;;;;;;;4987255;28;20221;-25
2023/06/20 00:41:44;;;;;;;7.22;4.35;;;;;;;;;;4981898;28;20221;-28
2023/06/20 00:44:14;;;;;;;4.45;4.05;;;;;;;;;;4972820;28;20257;-24
2023/06/20 00:46:41;;;;;;;5.97;5.47;;;;;;;;;;4972444;28;20210;-27
2023/06/20 00:49:09;;;;;;;8.82;4.97;;;;;;;;;;4989645;28;20233;-26
2023/06/20 00:51:37;;;;;;;7.03;4.93;;;;;;;;;;4992310;28;20202;-28
2023/06/20 00:54:07;;;;;;;4.65;4.15;;;;;;;;;;4977307;28;20224;-25
2023/06/20 00:56:34;;;;;;;5.28;3.90;;;;;;;;;;4972928;28;20203;-27
2023/06/20 00:59:03;;;;;;;5.70;3.78;;;;;;;;;;4976063;28;20224;-28
2023/06/20 01:01:32;;;;;;;4.63;4.28;;;;;;;;;;4985716;28;20648;-27
2023/06/20 01:04:00;;;;;;;6.80;4.93;;;;;;;;;;4983262;28;20653;-27
2023/06/20 01:06:33;;;;;;;11.75;4.25;;;;;;;;;;4981208;28;20204;-27
2023/06/20 01:09:03;;;;;;;4.20;3.80;;;;;;;;;;4980878;28;20237;-27
2023/06/20 01:11:36;;;;;;;6.80;3.78;;;;;;;;;;4980549;28;20218;-26
2023/06/20 01:14:05;;;;;;;7.38;4.47;;;;;;;;;;4981163;28;20218;-24
2023/06/20 01:16:40;;;;;;;4.55;4.05;;;;;;;;;;4982875;28;20212;-26
2023/06/20 01:19:13;;;;;;;4.13;3.72;;;;;;;;;;4983107;28;20317;-24
2023/06/20 01:21:42;;;;;;;7.90;4.20;;;;;;;;;;4984813;28;20213;-25
2023/06/20 01:24:12;;;;;;;4.50;4.10;;;;;;;;;;4978301;28;20689;-24
2023/06/20 01:26:45;;;;;;;4.05;3.67;;;;;;;;;;4980794;28;20214;-28
2023/06/20 01:29:15;;;;;;;5.05;4.20;;;;;;;;;;4984341;28;20222;-24
2023/06/20 01:31:46;;;;;;;6.65;4.30;;;;;;;;;;4991159;28;20222;-27
2023/06/20 01:34:16;;;;;;;5.65;4.25;;;;;;;;;;4980090;28;20233;-23
2023/06/20 01:36:44;;;;;;;7.20;4.53;;;;;;;;;;4982592;28;20207;-27
2023/06/20 01:39:14;;;;;;;4.38;3.85;;;;;;;;;;4979809;28;20223;-27
2023/06/20 01:41:43;;;;;;;4.68;4.18;;;;;;;;;;4987077;28;20216;-29
2023/06/20 01:44:12;;;;;;;5.03;3.55;;;;;;;;;;4972015;28;20204;-24
2023/06/20 01:46:39;;;;;;;4.78;4.20;;;;;;;;;;4980006;28;20210;-26
2023/06/20 01:49:07;;;;;;;5.70;4.32;;;;;;;;;;4975625;28;20227;-27
2023/06/20 01:51:34;;;;;;;7.63;4.15;;;;;;;;;;4987537;28;20207;-24
2023/06/20 01:54:02;;;;;;;5.68;4.80;;;;;;;;;;4983372;28;20614;-28
2023/06/20 01:56:31;;;;;;;5.05;3.90;;;;;;;;;;4974658;28;20202;-27
2023/06/20 01:59:01;;;;;;;7.43;4.22;;;;;;;;;;4982008;28;20544;-27
2023/06/20 02:01:28;;;;;;;4.97;4.10;;;;;;;;;;4987694;28;20217;-25
2023/06/20 02:03:56;;;;;;;5.90;4.10;;;;;;;;;;4971861;28;20203;-26
2023/06/20 02:06:24;;;;;;;6.35;4.47;;;;;;;;;;4971317;28;20261;-25
2023/06/20 02:08:52;;;;;;;5.70;3.90;;;;;;;;;;4969864;28;20226;-26
2023/06/20 02:11:20;;;;;;;3.92;3.63;;;;;;;;;;4979451;28;20202;-25
2023/06/20 02:13:51;;;;;;;4.90;4.25;;;;;;;;;;4984178;28;20219;-27
2023/06/20 02:16:19;;;;;;;9.90;4.05;;;;;;;;;;4981279;28;20203;-26
2023/06/20 02:18:47;;;;;;;8.85;4.35;;;;;;;;;;4980153;28;20230;-26
2023/06/20 02:21:28;;;;;;;4.00;3.60;;;;;;;;;;4977838;28;20213;-27
2023/06/20 02:23:55;;;;;;;4.35;3.95;;;;;;;;;;4973392;28;20209;-23
2023/06/20 02:26:25;;;;;;;5.88;4.22;;;;;;;;;;4978558;28;20210;-27
2023/06/20 02:28:56;;;;;;;7.53;4.63;;;;;;;;;;4988935;28;20742;-27
2023/06/20 02:31:24;;;;;;;6.78;4.10;;;;;;;;;;4987246;28;20202;-27
2023/06/20 02:33:53;;;;;;;4.82;4.25;;;;;;;;;;4980378;28;20221;-25
2023/06/20 02:36:20;;;;;;;5.57;3.88;;;;;;;;;;4971150;28;20198;-24
2023/06/20 02:38:47;;;;;;;4.40;3.65;;;;;;;;;;4971066;28;20222;-26
2023/06/20 02:41:15;;;;;;;4.50;4.10;;;;;;;;;;4990153;28;20206;-24
2023/06/20 02:43:42;;;;;;;7.80;4.32;;;;;;;;;;4976090;28;20201;-28
2023/06/20 02:46:15;;;;;;;6.15;4.10;;;;;;;;;;4975282;28;20209;-25
2023/06/20 02:48:47;;;;;;;8.10;4.35;;;;;;;;;;4983764;28;20236;-27
2023/06/20 02:51:17;;;;;;;4.85;4.45;;;;;;;;;;4983413;28;20257;-26
2023/06/20 02:53:47;;;;;;;4.10;3.70;;;;;;;;;;4976542;28;20239;-26
2023/06/20 02:56:15;;;;;;;6.07;3.85;;;;;;;;;;4987649;28;20565;-26
2023/06/20 02:58:42;;;;;;;6.00;4.47;;;;;;;;;;4977433;28;20701;-27
2023/06/20 03:01:11;;;;;;;5.90;4.25;;;;;;;;;;4974736;28;20538;-25
2023/06/20 03:03:42;;;;;;;5.90;4.50;;;;;;;;;;4979356;28;20219;-26
2023/06/20 03:06:11;;;;;;;4.70;4.30;;;;;;;;;;4979497;28;20195;-27
2023/06/20 03:08:40;;;;;;;4.85;4.15;;;;;;;;;;4979471;28;20221;-26
2023/06/20 03:11:07;;;;;;;5.93;4.50;;;;;;;;;;4996097;28;20198;-24
2023/06/20 03:13:34;;;;;;;7.65;5.25;;;;;;;;;;4987187;28;20197;-27
2023/06/20 03:16:01;;;;;;;8.10;4.30;;;;;;;;;;4988228;28;20210;-25
2023/06/20 03:18:29;;;;;;;5.20;4.65;;;;;;;;;;4991977;28;20227;-25
2023/06/20 03:20:57;;;;;;;6.32;4.72;;;;;;;;;;4990271;28;20221;-26
2023/06/20 03:23:24;;;;;;;4.88;4.38;;;;;;;;;;4984207;28;20211;-26
2023/06/20 03:25:52;;;;;;;4.30;3.80;;;;;;;;;;4987442;28;20210;-26
2023/06/20 03:28:19;;;;;;;8.60;4.25;;;;;;;;;;4983074;28;20348;-24
2023/06/20 03:30:46;;;;;;;5.93;4.80;;;;;;;;;;4976222;28;20211;-25
2023/06/20 03:33:14;;;;;;;5.93;4.45;;;;;;;;;;4979700;28;20209;-27
2023/06/20 03:35:41;;;;;;;8.77;5.47;;;;;;;;;;4987422;28;20231;-25
2023/06/20 03:38:10;;;;;;;5.57;4.55;;;;;;;;;;4980818;28;20313;-26
2023/06/20 03:40:37;;;;;;;8.18;5.00;;;;;;;;;;4989179;28;20212;-28
2023/06/20 03:43:04;;;;;;;7.47;4.30;;;;;;;;;;4984856;28;20558;-26
2023/06/20 03:45:31;;;;;;;6.13;4.28;;;;;;;;;;4993429;28;20198;-27
2023/06/20 03:47:59;;;;;;;4.85;4.40;;;;;;;;;;4989254;28;20199;-27
2023/06/20 03:50:26;;;;;;;6.72;3.80;;;;;;;;;;4989391;28;20631;-25
2023/06/20 03:52:53;;;;;;;5.43;4.25;;;;;;;;;;4978722;28;20215;-28
2023/06/20 03:55:21;;;;;;;8.30;4.53;;;;;;;;;;4986933;28;20223;-23
2023/06/20 03:57:48;;;;;;;5.47;4.90;;;;;;;;;;4975111;28;20201;-23
2023/06/20 04:00:16;;;;;;;6.47;4.30;;;;;;;;;;4976564;28;20232;-25
2023/06/20 04:02:44;;;;;;;8.10;5.07;;;;;;;;;;4986649;28;20205;-27
2023/06/20 04:05:12;;;;;;;6.32;5.07;;;;;;;;;;4988268;28;20193;-23
2023/06/20 04:07:41;;;;;;;6.43;4.65;;;;;;;;;;4976321;28;20203;-26
2023/06/20 04:10:09;;;;;;;6.93;4.57;;;;;;;;;;4988084;28;20289;-26
2023/06/20 04:12:38;;;;;;;6.03;4.53;;;;;;;;;;4991481;28;20201;-24
2023/06/20 04:15:05;;;;;;;4.85;4.45;;;;;;;;;;4995675;28;20227;-23
2023/06/20 04:17:37;;;;;;;5.20;4.22;;;;;;;;;;4988604;28;20217;-24
2023/06/20 04:20:11;;;;;;;6.63;4.45;;;;;;;;;;4983128;28;20217;-24
2023/06/20 04:22:40;;;;;;;5.47;4.50;;;;;;;;;;4992127;28;20232;-27
2023/06/20 04:25:08;;;;;;;5.78;5.25;;;;;;;;;;4985604;28;20648;-27
2023/06/20 04:27:35;;;;;;;5.28;4.43;;;;;;;;;;4982833;28;20204;-23
2023/06/20 04:35:10;;;;;;;8.25;4.72;;;;;;;;;;5048103;28;20234;-35
2023/06/20 04:37:38;;;;;;;4.95;4.38;;;;;;;;;;5035602;28;20219;-32
2023/06/20 04:40:07;;;;;;;6.28;5.10;;;;;;;;;;5041241;28;20238;-30
2023/06/20 04:42:34;;;;;;;4.53;4.13;;;;;;;;;;5042618;28;20231;-36
2023/06/20 04:45:02;;;;;;;5.55;5.05;;;;;;;;;;5031399;28;20204;-35
2023/06/20 04:47:32;;;;;;;5.60;5.10;;;;;;;;;;5030031;28;20211;-33
2023/06/20 04:50:03;;;;;;;5.43;4.93;;;;;;;;;;5039144;28;20333;-32
2023/06/20 04:52:31;;;;;;;5.97;5.38;;;;;;;;;;5039280;28;20200;-32
2023/06/20 04:55:02;;;;;;;5.70;4.80;;;;;;;;;;5038154;28;20221;-33
2023/06/20 04:57:29;;;;;;;6.32;5.20;;;;;;;;;;5044350;28;20249;-34
2023/06/20 04:59:56;;;;;;;6.57;5.15;;;;;;;;;;5050561;28;20269;-34
2023/06/20 05:02:23;;;;;;;5.50;4.78;;;;;;;;;;5039004;28;20201;-31
2023/06/20 05:04:50;;;;;;;5.53;4.97;;;;;;;;;;5034474;28;20203;-29
2023/06/20 05:07:18;;;;;;;5.88;5.30;;;;;;;;;;5029780;28;20203;-30
2023/06/20 05:09:46;;;;;;;6.53;5.22;;;;;;;;;;5029603;28;20232;-32
2023/06/20 05:12:13;;;;;;;5.55;5.05;;;;;;;;;;5042479;28;20272;-31
2023/06/20 05:14:40;;;;;;;6.28;4.93;;;;;;;;;;5033698;28;20231;-31
2023/06/20 05:17:07;;;;;;;5.20;4.80;;;;;;;;;;5040321;28;20627;-30
2023/06/20 05:19:34;;;;;;;8.02;5.30;;;;;;;;;;5040162;28;20230;-31
2023/06/20 05:22:02;;;;;;;6.05;4.38;;;;;;;;;;5031100;28;20306;-32
2023/06/20 05:24:29;;;;;;;5.10;4.60;;;;;;;;;;5036566;28;20196;-31
2023/06/20 05:26:57;;;;;;;4.82;3.90;;;;;;;;;;5035816;28;20211;-32
2023/06/20 05:29:24;;;;;;;6.72;4.65;;;;;;;;;;5037134;28;20230;-34
2023/06/20 05:31:51;;;;;;;6.40;4.43;;;;;;;;;;5031165;28;20217;-33
2023/06/20 05:34:18;;;;;;;6.20;4.65;;;;;;;;;;5049568;28;20210;-33
2023/06/20 05:36:46;;;;;;;6.10;4.40;;;;;;;;;;5041575;28;20207;-33
2023/06/20 05:39:13;;;;;;;6.00;4.45;;;;;;;;;;5040423;28;20240;-33
2023/06/20 05:41:41;;;;;;;5.20;4.65;;;;;;;;;;5033366;28;20214;-31
2023/06/20 05:44:10;;;;;;;6.70;4.57;;;;;;;;;;5030233;28;20208;-31
2023/06/20 05:46:37;;;;;;;5.10;4.60;;;;;;;;;;5030194;28;20208;-36
2023/06/20 05:49:09;;;;;;;6.05;4.57;;;;;;;;;;5038203;28;20251;-35
2023/06/20 05:51:36;;;;;;;4.57;3.40;;;;;;;;;;5041499;28;20204;-31
2023/06/20 05:54:03;;;;;;;8.75;3.85;;;;;;;;;;5027304;28;20205;-29
2023/06/20 05:56:31;;;;;;;7.18;3.67;;;;;;;;;;5040281;28;20224;-32
2023/06/20 05:58:58;;;;;;;6.18;3.67;;;;;;;;;;5042045;28;20220;-29
2023/06/20 06:01:26;;;;;;;5.65;3.30;;;;;;;;;;5050254;28;20198;-29
2023/06/20 06:03:55;;;;;;;3.83;3.15;;;;;;;;;;5041959;28;20212;-33
2023/06/20 06:06:24;;;;;;;3.90;2.95;;;;;;;;;;5037750;28;20190;-31
2023/06/20 06:08:51;;;;;;;5.10;3.05;;;;;;;;;;5043777;28;20252;-32
2023/06/20 06:11:19;;;;;;;6.43;2.92;;;;;;;;;;5049402;28;20204;-33
2023/06/20 06:13:47;;;;;;;3.75;3.15;;;;;;;;;;5038817;28;20209;-33
2023/06/20 06:16:14;;;;;;;4.35;3.13;;;;;;;;;;5029741;28;20232;-30
2023/06/20 06:18:42;;;;;;;3.50;3.20;;;;;;;;;;5038103;28;20258;-31
2023/06/20 06:21:09;;;;;;;3.05;2.85;;;;;;;;;;5038011;28;20211;-32
2023/06/20 06:23:37;;;;;;;3.65;2.75;;;;;;;;;;5029699;28;20209;-34
2023/06/20 06:26:05;;;;;;;5.07;3.15;;;;;;;;;;5029008;28;20209;-33
2023/06/20 06:28:32;;;;;;;4.38;3.05;;;;;;;;;;5029291;28;20214;-29
2023/06/20 06:31:00;;;;;;;6.63;3.70;;;;;;;;;;5029643;28;20202;-33
2023/06/20 06:33:27;;;;;;;3.60;3.30;;;;;;;;;;5027747;28;20274;-33
2023/06/20 06:35:56;;;;;;;3.92;3.05;;;;;;;;;;5035276;28;20229;-31
2023/06/20 06:38:23;;;;;;;4.25;3.10;;;;;;;;;;5027063;28;20218;-32
2023/06/20 06:40:54;;;;;;;4.80;3.10;;;;;;;;;;5030000;28;20210;-32
2023/06/20 06:43:22;;;;;;;6.40;3.25;;;;;;;;;;5037515;28;20202;-30
2023/06/20 06:45:49;;;;;;;3.67;3.15;;;;;;;;;;5029740;28;20206;-32
2023/06/20 06:48:16;;;;;;;3.40;3.10;;;;;;;;;;5040937;28;20213;-30
2023/06/20 06:50:43;;;;;;;5.45;2.80;;;;;;;;;;5049648;28;20201;-30
2023/06/20 06:53:12;;;;;;;8.63;3.20;;;;;;;;;;5043554;28;20210;-33
2023/06/20 06:55:39;;;;;;;4.18;3.03;;;;;;;;;;5041182;28;20226;-30
2023/06/20 06:58:06;;;;;;;4.35;3.17;;;;;;;;;;5030640;28;20205;-30
2023/06/20 07:00:34;;;;;;;3.97;3.20;;;;;;;;;;5031701;28;20212;-33
2023/06/20 07:03:01;;;;;;;6.18;3.05;;;;;;;;;;5029673;28;20208;-33
2023/06/20 07:05:28;;;;;;;7.40;2.97;;;;;;;;;;5046213;28;20205;-29
2023/06/20 07:07:55;;;;;;;3.33;3.03;;;;;;;;;;5028438;28;21022;-30
2023/06/20 07:10:24;;;;;;;5.25;2.80;;;;;;;;;;5043332;28;20218;-31
2023/06/20 07:12:51;;;;;;;4.63;2.80;;;;;;;;;;5030357;28;20199;-34
2023/06/20 07:15:18;;;;;;;4.78;3.00;;;;;;;;;;5029448;28;20223;-30
2023/06/20 07:17:45;;;;;;;5.25;2.80;;;;;;;;;;5028487;28;20213;-32
2023/06/20 07:20:12;;;;;;;4.47;3.10;;;;;;;;;;5032264;28;20469;-32
2023/06/20 07:22:39;;;;;;;3.83;2.47;;;;;;;;;;5043506;28;20205;-32
2023/06/20 07:25:08;;;;;;;3.15;2.58;;;;;;;;;;5029130;28;20241;-34
2023/06/20 07:27:36;;;;;;;2.78;2.58;;;;;;;;;;5036935;28;20202;-31
2023/06/20 07:30:03;;;;;;;3.30;2.72;;;;;;;;;;5051896;28;20320;-29
2023/06/20 07:32:30;;;;;;;4.65;2.70;;;;;;;;;;5036491;28;20206;-33
2023/06/20 07:34:57;;;;;;;4.38;2.90;;;;;;;;;;5046744;28;20216;-33
2023/06/20 07:37:25;;;;;;;6.03;2.90;;;;;;;;;;5038080;28;20210;-30
2023/06/20 07:39:52;;;;;;;4.60;2.80;;;;;;;;;;5036185;28;20237;-34
2023/06/20 07:42:19;;;;;;;4.00;3.60;;;;;;;;;;5038523;28;20198;-31
2023/06/20 07:44:47;;;;;;;3.25;2.88;;;;;;;;;;5035273;28;20198;-34
2023/06/20 07:47:14;;;;;;;5.55;3.22;;;;;;;;;;5037218;28;20205;-34
2023/06/20 07:49:42;;;;;;;4.82;2.95;;;;;;;;;;5048348;28;20234;-32
2023/06/20 07:52:09;;;;;;;4.00;3.17;;;;;;;;;;5033108;28;20202;-35
2023/06/20 07:54:36;;;;;;;5.35;3.28;;;;;;;;;;5039311;28;20205;-34
2023/06/20 07:57:03;;;;;;;4.15;2.90;;;;;;;;;;5051665;28;20222;-35
2023/06/20 07:59:30;;;;;;;5.22;3.20;;;;;;;;;;5052703;28;20527;-32
2023/06/20 08:01:59;;;;;;;3.80;3.13;;;;;;;;;;5049823;28;20201;-35
2023/06/20 08:04:26;;;;;;;3.22;2.95;;;;;;;;;;5043075;28;20207;-34
2023/06/20 08:06:53;;;;;;;3.63;3.03;;;;;;;;;;5048823;28;20198;-29
2023/06/20 08:09:20;;;;;;;3.63;3.03;;;;;;;;;;5030695;28;20225;-29
2023/06/20 08:11:47;;;;;;;3.95;3.22;;;;;;;;;;5037323;28;20829;-29
2023/06/20 08:14:16;;;;;;;6.20;3.40;;;;;;;;;;5039329;28;20202;-30
2023/06/20 08:16:43;;;;;;;3.70;3.03;;;;;;;;;;5032434;28;20222;-29
2023/06/20 08:19:12;;;;;;;6.32;3.55;;;;;;;;;;5041391;28;20248;-30
2023/06/20 08:21:39;;;;;;;7.22;3.38;;;;;;;;;;5043670;28;20206;-30
2023/06/20 08:24:06;;;;;;;3.25;2.95;;;;;;;;;;5039835;28;20621;-31
2023/06/20 08:26:33;;;;;;;5.82;3.50;;;;;;;;;;5043539;28;20191;-29
2023/06/20 08:29:00;;;;;;;5.32;3.58;;;;;;;;;;5037717;28;20310;-32
2023/06/20 08:31:36;;;;;;;3.67;3.30;;;;;;;;;;5030687;28;20203;-29
2023/06/20 08:34:04;;;;;;;6.57;3.47;;;;;;;;;;5045679;28;20241;-33
2023/06/20 08:36:33;;;;;;;5.22;3.10;;;;;;;;;;5040466;28;20222;-34
2023/06/20 08:39:00;;;;;;;5.70;3.30;;;;;;;;;;5034360;28;20225;-33
2023/06/20 08:41:28;;;;;;;4.25;3.70;;;;;;;;;;5037310;28;20211;-32
2023/06/20 08:43:55;;;;;;;4.95;3.30;;;;;;;;;;5044413;28;20204;-30
2023/06/20 08:46:24;;;;;;;5.65;3.33;;;;;;;;;;5047346;28;20202;-33
2023/06/20 08:48:51;;;;;;;3.65;3.17;;;;;;;;;;5041862;28;20236;-30
2023/06/20 08:51:18;;;;;;;5.90;3.22;;;;;;;;;;5041706;28;20213;-31
2023/06/20 08:53:47;;;;;;;5.35;3.55;;;;;;;;;;5041210;28;20210;-31
2023/06/20 08:56:15;;;;;;;4.50;4.07;;;;;;;;;;5038645;28;20226;-31
2023/06/20 08:58:42;;;;;;;3.97;3.33;;;;;;;;;;5044800;28;20275;-31
2023/06/20 09:01:09;;;;;;;5.32;3.72;;;;;;;;;;5046764;28;20212;-32
2023/06/20 09:03:37;;;;;;;5.28;3.28;;;;;;;;;;5047332;28;20300;-31
2023/06/20 09:06:04;;;;;;;5.38;3.50;;;;;;;;;;5050564;28;20208;-33
2023/06/20 09:08:36;;;;;;;6.28;3.47;;;;;;;;;;5044925;28;20244;-31
2023/06/20 09:11:08;;;;;;;6.50;3.65;;;;;;;;;;5039787;28;20199;-31
2023/06/20 09:13:44;;;;;;;5.93;3.63;;;;;;;;;;5035757;28;20293;-31
2023/06/20 09:16:12;;;;;;;6.65;3.60;;;;;;;;;;5032338;28;20226;-33
2023/06/20 09:18:40;;;;;;;4.70;3.70;;;;;;;;;;5036500;28;20296;-33
2023/06/20 09:21:08;;;;;;;5.30;3.47;;;;;;;;;;5037136;28;20310;-33
2023/06/20 09:23:35;;;;;;;4.47;3.70;;;;;;;;;;5034811;28;20213;-31
2023/06/20 09:26:15;;;;;;;5.32;3.40;;;;;;;;;;5040141;28;20206;-31
2023/06/20 09:28:43;;;;;;;4.82;3.75;;;;;;;;;;5029888;28;20291;-34
2023/06/20 09:31:11;;;;;;;4.38;3.22;;;;;;;;;;5030620;28;20201;-33
2023/06/20 09:33:38;;;;;;;4.93;3.85;;;;;;;;;;5031366;28;20221;-33
2023/06/20 09:36:12;;;;;;;6.05;3.45;;;;;;;;;;5041775;28;20217;-34
2023/06/20 09:38:42;;;;;;;5.57;4.00;;;;;;;;;;5042150;28;20226;-31
2023/06/20 09:41:09;;;;;;;7.85;3.70;;;;;;;;;;5034847;28;20197;-32
2023/06/20 09:43:37;;;;;;;4.70;3.67;;;;;;;;;;5036172;28;20210;-33
2023/06/20 09:46:05;;;;;;;5.57;3.60;;;;;;;;;;5030044;28;20200;-30
2023/06/20 09:48:33;;;;;;;5.53;3.53;;;;;;;;;;5043619;28;20224;-34
2023/06/20 09:51:01;;;;;;;5.03;3.50;;;;;;;;;;5046354;28;20198;-33
2023/06/20 09:53:30;;;;;;;3.83;3.38;;;;;;;;;;5030178;28;20217;-33
2023/06/20 09:55:58;;;;;;;10.27;4.15;;;;;;;;;;5025210;28;20264;-32
2023/06/20 09:58:26;;;;;;;4.07;3.45;;;;;;;;;;5025580;28;20225;-33
2023/06/20 10:00:55;;;;;;;5.88;4.10;;;;;;;;;;5026973;28;20297;-34
2023/06/20 10:03:24;;;;;;;7.15;3.80;;;;;;;;;;5029775;28;20212;-31
2023/06/20 10:05:51;;;;;;;4.13;3.63;;;;;;;;;;5032767;28;20233;-30
2023/06/20 10:08:20;;;;;;;5.03;3.80;;;;;;;;;;5031607;28;20238;-33
2023/06/20 10:10:47;;;;;;;4.68;3.42;;;;;;;;;;5031058;28;20218;-31
2023/06/20 10:13:15;;;;;;;4.13;3.67;;;;;;;;;;5037168;28;20204;-32
2023/06/20 10:15:42;;;;;;;5.97;3.75;;;;;;;;;;5046610;28;20202;-34
2023/06/20 10:18:21;;;;;;;6.22;3.78;;;;;;;;;;5032138;28;20221;-31
2023/06/20 10:20:48;;;;;;;3.95;3.40;;;;;;;;;;5027229;28;20226;-33
2023/06/20 10:23:20;;;;;;;5.55;3.70;;;;;;;;;;5033319;28;20241;-34
2023/06/20 10:25:51;;;;;;;4.97;3.83;;;;;;;;;;5032515;28;20207;-34
2023/06/20 10:28:20;;;;;;;8.27;3.63;;;;;;;;;;5025463;28;20277;-31
2023/06/20 10:30:58;;;;;;;6.10;3.85;;;;;;;;;;5025699;28;20449;-32
2023/06/20 10:33:27;;;;;;;6.15;3.92;;;;;;;;;;5036277;28;20220;-30
2023/06/20 10:35:56;;;;;;;6.93;4.03;;;;;;;;;;5028428;28;20206;-29
2023/06/20 10:38:23;;;;;;;6.90;3.78;;;;;;;;;;5039383;28;20252;-34
2023/06/20 10:41:06;;;;;;;6.10;3.78;;;;;;;;;;5033697;28;20225;-34
2023/06/20 10:43:47;;;;;;;4.28;3.85;;;;;;;;;;5030750;28;20211;-31
2023/06/20 10:46:14;;;;;;;4.55;3.05;;;;;;;;;;5028918;28;20202;-31
2023/06/20 10:48:43;;;;;;;7.25;3.40;;;;;;;;;;5025943;28;20312;-35
2023/06/20 10:51:10;;;;;;;3.97;3.38;;;;;;;;;;5019983;28;20198;-33
2023/06/20 10:53:37;;;;;;;6.10;4.22;;;;;;;;;;5025711;28;20237;-31
2023/06/20 10:56:04;;;;;;;4.75;3.20;;;;;;;;;;5029326;28;20233;-30
2023/06/20 10:58:31;;;;;;;6.45;3.65;;;;;;;;;;5022313;28;20316;-32
2023/06/20 11:00:59;;;;;;;4.25;3.35;;;;;;;;;;5028394;28;20206;-29
2023/06/20 11:03:26;;;;;;;8.38;3.60;;;;;;;;;;5023638;28;20214;-34
2023/06/20 11:05:55;;;;;;;4.22;3.40;;;;;;;;;;5031477;28;20202;-31
2023/06/20 11:08:22;;;;;;;6.95;4.78;;;;;;;;;;5029239;28;20226;-32
2023/06/20 11:10:50;;;;;;;4.57;3.47;;;;;;;;;;5026716;28;20315;-32
2023/06/20 11:13:17;;;;;;;4.25;3.72;;;;;;;;;;5037222;28;20244;-29
2023/06/20 11:15:44;;;;;;;3.83;3.35;;;;;;;;;;5020031;28;20239;-30
2023/06/20 11:18:11;;;;;;;5.43;3.45;;;;;;;;;;5018332;28;20234;-31
2023/06/20 11:20:40;;;;;;;4.15;3.25;;;;;;;;;;5019749;28;20206;-29
2023/06/20 11:23:10;;;;;;;5.45;3.00;;;;;;;;;;5018280;28;20202;-33
2023/06/20 11:25:38;;;;;;;6.00;3.40;;;;;;;;;;5015773;28;20300;-30
2023/06/20 11:28:05;;;;;;;3.80;3.20;;;;;;;;;;5019370;28;20221;-32
2023/06/20 11:30:33;;;;;;;4.03;3.15;;;;;;;;;;5019813;28;20202;-27
2023/06/20 11:33:05;;;;;;;4.90;3.35;;;;;;;;;;5010821;28;20217;-31
2023/06/20 11:35:42;;;;;;;9.30;3.45;;;;;;;;;;5022515;28;20297;-28
2023/06/20 11:38:11;;;;;;;7.13;3.47;;;;;;;;;;5017427;28;20293;-30
2023/06/20 11:40:39;;;;;;;6.95;3.60;;;;;;;;;;5026692;28;20221;-28
2023/06/20 11:43:06;;;;;;;5.15;3.55;;;;;;;;;;5027401;28;20214;-31
2023/06/20 11:45:34;;;;;;;5.63;3.50;;;;;;;;;;5007829;28;20203;-30
2023/06/20 11:48:10;;;;;;;5.63;3.60;;;;;;;;;;5022624;28;20205;-30
2023/06/20 11:50:38;;;;;;;3.50;3.20;;;;;;;;;;5021278;28;20214;-29
2023/06/20 11:53:05;;;;;;;5.20;3.65;;;;;;;;;;5007234;28;20214;-32
2023/06/20 11:55:50;;;;;;;5.15;3.50;;;;;;;;;;5017327;28;20293;-28
2023/06/20 11:58:17;;;;;;;5.20;3.38;;;;;;;;;;5025292;28;20234;-30
2023/06/20 12:00:46;;;;;;;5.63;3.70;;;;;;;;;;5010310;28;20211;-31
2023/06/20 12:12:01;;;;;;;5.45;3.30;;;;;;;;;;5370284;23;20957;-28
2023/06/20 12:14:28;;;;;;;7.03;3.63;;;;;;;;;;5044610;28;20194;-31
2023/06/20 12:16:55;;;;;;;4.35;3.20;;;;;;;;;;5051528;28;20228;-31
2023/06/20 12:19:22;;;;;;;5.68;3.55;;;;;;;;;;5044152;28;20232;-32
2023/06/20 12:21:50;;;;;;;5.82;3.75;;;;;;;;;;5039542;28;20663;-30
2023/06/20 12:24:20;;;;;;;4.03;3.42;;;;;;;;;;5037670;28;20844;-32
2023/06/20 12:26:51;;;;;;;5.32;3.42;;;;;;;;;;5042189;28;20217;-28
2023/06/20 12:29:19;;;;;;;5.43;3.75;;;;;;;;;;5035781;28;20230;-34
2023/06/20 12:31:47;;;;;;;6.97;4.80;;;;;;;;;;5037546;28;20212;-29
2023/06/20 12:34:14;;;;;;;9.55;4.40;;;;;;;;;;5037189;28;20563;-30
2023/06/20 12:36:41;;;;;;;7.32;3.88;;;;;;;;;;5035187;28;20210;-33
2023/06/20 12:39:08;;;;;;;7.35;3.72;;;;;;;;;;5030024;28;20696;-30
2023/06/20 12:41:36;;;;;;;10.25;4.20;;;;;;;;;;5033923;28;20660;-29
2023/06/20 12:44:03;;;;;;;7.32;4.38;;;;;;;;;;5034978;28;20671;-28
2023/06/20 12:46:31;;;;;;;6.90;3.75;;;;;;;;;;5048582;28;20206;-30
2023/06/20 12:48:59;;;;;;;10.13;3.75;;;;;;;;;;5036623;28;20221;-32
2023/06/20 12:51:26;;;;;;;6.47;3.90;;;;;;;;;;5040182;28;20888;-30
2023/06/20 12:53:53;;;;;;;6.07;4.22;;;;;;;;;;5042682;28;20206;-28
2023/06/20 12:56:22;;;;;;;6.93;4.07;;;;;;;;;;5034770;28;20201;-29
2023/06/20 12:58:49;;;;;;;5.75;4.22;;;;;;;;;;5037893;28;20233;-30
2023/06/20 13:01:16;;;;;;;6.38;3.97;;;;;;;;;;5027443;28;20221;-34
2023/06/20 13:03:44;;;;;;;7.65;3.80;;;;;;;;;;5030809;28;20206;-32
2023/06/20 13:06:11;;;;;;;8.48;3.78;;;;;;;;;;5039010;28;20260;-26
2023/06/20 13:08:39;;;;;;;6.60;3.90;;;;;;;;;;5034891;28;20229;-28
2023/06/20 13:11:06;;;;;;;12.38;5.20;;;;;;;;;;5028230;28;20217;-28
2023/06/20 13:13:33;;;;;;;7.82;4.35;;;;;;;;;;5042916;28;20201;-30
2023/06/20 13:16:00;;;;;;;10.68;4.10;;;;;;;;;;5046250;28;20229;-28
2023/06/20 13:18:27;;;;;;;8.20;3.60;;;;;;;;;;5033988;28;20272;-29
2023/06/20 13:20:56;;;;;;;7.63;3.55;;;;;;;;;;5038152;28;20213;-30
2023/06/20 13:23:23;;;;;;;5.85;3.40;;;;;;;;;;5037802;28;20207;-28
2023/06/20 13:25:50;;;;;;;9.40;4.40;;;;;;;;;;5027297;28;20203;-30
2023/06/20 13:28:17;;;;;;;9.07;4.00;;;;;;;;;;5033985;28;20675;-29
2023/06/20 13:30:45;;;;;;;6.65;4.10;;;;;;;;;;5037014;28;20708;-29
2023/06/20 13:33:12;;;;;;;6.72;3.97;;;;;;;;;;5031016;28;20253;-30
2023/06/20 13:35:39;;;;;;;9.43;4.30;;;;;;;;;;5032492;28;20213;-29
2023/06/20 13:38:08;;;;;;;8.65;4.22;;;;;;;;;;5029703;28;20237;-29
2023/06/20 13:40:35;;;;;;;9.48;4.38;;;;;;;;;;5035260;28;20206;-31
2023/06/20 13:43:06;;;;;;;7.22;3.90;;;;;;;;;;5039158;28;20202;-29
2023/06/20 13:45:33;;;;;;;8.18;4.43;;;;;;;;;;5026218;28;20755;-30
2023/06/20 13:48:01;;;;;;;5.65;4.35;;;;;;;;;;5024941;28;20206;-30
2023/06/20 13:50:28;;;;;;;5.90;4.15;;;;;;;;;;5039003;28;20197;-29
2023/06/20 13:52:55;;;;;;;8.23;4.03;;;;;;;;;;5041775;28;20711;-31
2023/06/20 13:55:23;;;;;;;9.70;3.83;;;;;;;;;;5033328;28;20212;-31
2023/06/20 13:57:51;;;;;;;10.65;4.57;;;;;;;;;;5034093;28;20221;-29
2023/06/20 14:00:18;;;;;;;7.93;4.07;;;;;;;;;;5046624;28;20592;-32
2023/06/20 14:02:46;;;;;;;6.63;4.40;;;;;;;;;;5027356;28;20281;-29
2023/06/20 14:05:13;;;;;;;6.63;4.45;;;;;;;;;;5132029;22;20336;-25
2023/06/20 14:07:40;;;;;;;12.68;4.40;;;;;;;;;;5030355;28;20245;-28
2023/06/20 14:10:08;;;;;;;7.43;4.40;;;;;;;;;;5011828;28;20309;-27
2023/06/20 14:12:37;;;;;;;6.68;4.32;;;;;;;;;;5016110;28;20199;-24
2023/06/20 14:15:04;;;;;;;9.50;4.43;;;;;;;;;;5027812;28;20209;-25
2023/06/20 14:17:31;;;;;;;8.25;4.07;;;;;;;;;;5030337;28;20228;-24
2023/06/20 14:19:58;;;;;;;4.22;3.67;;;;;;;;;;5018611;28;20317;-26
2023/06/20 14:22:25;;;;;;;6.45;3.97;;;;;;;;;;5031933;28;20203;-24
2023/06/20 14:24:52;;;;;;;6.60;4.18;;;;;;;;;;5027221;28;20206;-24
2023/06/20 14:27:23;;;;;;;6.50;4.00;;;;;;;;;;5023308;28;20214;-24
2023/06/20 14:29:51;;;;;;;4.50;3.83;;;;;;;;;;5014543;28;20230;-27
2023/06/20 14:32:18;;;;;;;8.07;4.63;;;;;;;;;;5011105;28;20214;-26
2023/06/20 14:34:45;;;;;;;7.18;4.30;;;;;;;;;;5029578;28;20264;-27
2023/06/20 14:37:13;;;;;;;7.10;4.30;;;;;;;;;;5030905;28;20209;-26
2023/06/20 14:39:41;;;;;;;11.57;4.75;;;;;;;;;;5016135;28;20716;-24
2023/06/20 14:42:08;;;;;;;11.55;4.30;;;;;;;;;;5027096;28;20242;-25
2023/06/20 14:44:35;;;;;;;9.73;4.03;;;;;;;;;;5027999;28;20551;-24
2023/06/20 14:47:04;;;;;;;6.78;4.85;;;;;;;;;;5027767;28;20206;-26
2023/06/20 14:49:32;;;;;;;7.70;4.07;;;;;;;;;;5023322;28;20816;-28
2023/06/20 14:51:59;;;;;;;7.38;4.45;;;;;;;;;;5031590;28;20644;-27
2023/06/20 14:54:27;;;;;;;8.10;4.47;;;;;;;;;;5023068;28;20803;-26
2023/06/20 14:56:54;;;;;;;12.30;4.20;;;;;;;;;;5012751;28;20238;-26
2023/06/20 14:59:23;;;;;;;7.07;4.28;;;;;;;;;;5011973;28;20227;-24
2023/06/20 15:01:50;;;;;;;7.65;4.50;;;;;;;;;;5012430;28;20242;-26
2023/06/20 15:04:19;;;;;;;8.02;4.13;;;;;;;;;;5016317;28;20250;-26